sensor_id;sensor_type;location;lat;lon;timestamp;temperature;humidity
67273;DHT22;54190;49.770;9.250;2023-02-01T00:01:54;4.60;99.90
67273;DHT22;54190;49.770;9.250;2023-02-01T00:04:20;4.50;99.90
67273;DHT22;54190;49.770;9.250;2023-02-01T00:06:46;4.50;99.90
67273;DHT22;54190;49.770;9.250;2023-02-01T00:09:12;4.50;99.90
67273;DHT22;54190;49.770;9.250;2023-02-01T00:11:37;4.50;99.90
67273;DHT22;54190;49.770;9.250;2023-02-01T00:14:03;4.50;99.90
67273;DHT22;54190;49.770;9.250;2023-02-01T00:16:30;4.60;99.90
67273;DHT22;54190;49.770;9.250;2023-02-01T00:19:09;4.60;99.90
67273;DHT22;54190;49.770;9.250;2023-02-01T00:21:35;4.60;99.90
67273;DHT22;54190;49.770;9.250;2023-02-01T00:24:01;4.60;99.90
67273;DHT22;54190;49.770;9.250;2023-02-01T00:26:32;4.60;99.90
67273;DHT22;54190;49.770;9.250;2023-02-01T00:28:58;4.60;99.90
67273;DHT22;54190;49.770;9.250;2023-02-01T00:31:24;4.60;99.90
67273;DHT22;54190;49.770;9.250;2023-02-01T00:33:50;4.60;99.90
67273;DHT22;54190;49.770;9.250;2023-02-01T00:36:16;4.60;99.90
67273;DHT22;54190;49.770;9.250;2023-02-01T00:38:42;4.60;99.90
67273;DHT22;54190;49.770;9.250;2023-02-01T00:41:11;4.70;99.90
67273;DHT22;54190;49.770;9.250;2023-02-01T00:43:38;4.60;99.90
67273;DHT22;54190;49.770;9.250;2023-02-01T00:46:04;4.60;99.90
67273;DHT22;54190;49.770;9.250;2023-02-01T00:48:30;4.60;99.90
67273;DHT22;54190;49.770;9.250;2023-02-01T00:51:05;4.60;99.90
67273;DHT22;54190;49.770;9.250;2023-02-01T00:53:31;4.70;99.90
67273;DHT22;54190;49.770;9.250;2023-02-01T00:55:57;4.70;99.90
67273;DHT22;54190;49.770;9.250;2023-02-01T00:58:23;4.70;99.90
67273;DHT22;54190;49.770;9.250;2023-02-01T01:01:16;4.70;99.90
67273;DHT22;54190;49.770;9.250;2023-02-01T01:03:44;4.60;99.90
67273;DHT22;54190;49.770;9.250;2023-02-01T01:06:20;4.60;99.90
67273;DHT22;54190;49.770;9.250;2023-02-01T01:08:46;4.60;99.90
67273;DHT22;54190;49.770;9.250;2023-02-01T01:11:18;4.60;99.90
67273;DHT22;54190;49.770;9.250;2023-02-01T01:13:46;4.60;99.90
67273;DHT22;54190;49.770;9.250;2023-02-01T01:16:12;4.60;99.90
67273;DHT22;54190;49.770;9.250;2023-02-01T01:18:38;4.60;99.90
67273;DHT22;54190;49.770;9.250;2023-02-01T01:21:05;4.60;99.90
67273;DHT22;54190;49.770;9.250;2023-02-01T01:23:32;4.60;99.90
67273;DHT22;54190;49.770;9.250;2023-02-01T01:25:57;4.50;99.90
67273;DHT22;54190;49.770;9.250;2023-02-01T01:28:23;4.50;99.90
67273;DHT22;54190;49.770;9.250;2023-02-01T01:30:49;4.50;99.90
67273;DHT22;54190;49.770;9.250;2023-02-01T01:33:14;4.50;99.90
67273;DHT22;54190;49.770;9.250;2023-02-01T01:35:40;4.50;99.90
67273;DHT22;54190;49.770;9.250;2023-02-01T01:38:06;4.40;99.90
67273;DHT22;54190;49.770;9.250;2023-02-01T01:40:31;4.40;99.90
67273;DHT22;54190;49.770;9.250;2023-02-01T01:42:57;4.40;99.90
67273;DHT22;54190;49.770;9.250;2023-02-01T01:45:34;4.40;99.90
67273;DHT22;54190;49.770;9.250;2023-02-01T01:48:25;4.40;99.90
67273;DHT22;54190;49.770;9.250;2023-02-01T01:50:56;4.40;99.90
67273;DHT22;54190;49.770;9.250;2023-02-01T01:53:27;4.40;99.90
67273;DHT22;54190;49.770;9.250;2023-02-01T01:55:55;4.50;99.90
67273;DHT22;54190;49.770;9.250;2023-02-01T01:58:24;4.40;99.90
67273;DHT22;54190;49.770;9.250;2023-02-01T02:00:52;4.50;99.90
67273;DHT22;54190;49.770;9.250;2023-02-01T02:03:24;4.50;99.90
67273;DHT22;54190;49.770;9.250;2023-02-01T02:05:53;4.50;99.90
67273;DHT22;54190;49.770;9.250;2023-02-01T02:08:20;4.60;99.90
67273;DHT22;54190;49.770;9.250;2023-02-01T02:10:50;4.50;99.90
67273;DHT22;54190;49.770;9.250;2023-02-01T02:13:31;4.60;99.90
67273;DHT22;54190;49.770;9.250;2023-02-01T02:18:58;4.60;99.90
67273;DHT22;54190;49.770;9.250;2023-02-01T02:27:59;4.70;99.90
67273;DHT22;54190;49.770;9.250;2023-02-01T02:33:22;4.70;99.90
67273;DHT22;54190;49.770;9.250;2023-02-01T02:36:06;4.60;99.90
67273;DHT22;54190;49.770;9.250;2023-02-01T02:38:47;4.60;99.90
67273;DHT22;54190;49.770;9.250;2023-02-01T02:47:16;4.60;99.90
67273;DHT22;54190;49.770;9.250;2023-02-01T02:49:53;4.60;99.90
67273;DHT22;54190;49.770;9.250;2023-02-01T02:52:44;4.60;99.90
67273;DHT22;54190;49.770;9.250;2023-02-01T02:55:30;4.60;99.90
67273;DHT22;54190;49.770;9.250;2023-02-01T02:57:58;4.60;99.90
67273;DHT22;54190;49.770;9.250;2023-02-01T03:00:44;4.60;99.90
67273;DHT22;54190;49.770;9.250;2023-02-01T03:03:29;4.60;99.90
67273;DHT22;54190;49.770;9.250;2023-02-01T03:06:15;4.60;99.90
67273;DHT22;54190;49.770;9.250;2023-02-01T03:08:43;4.60;99.90
67273;DHT22;54190;49.770;9.250;2023-02-01T03:11:13;4.50;99.90
67273;DHT22;54190;49.770;9.250;2023-02-01T03:16:28;4.40;99.90
67273;DHT22;54190;49.770;9.250;2023-02-01T03:19:06;4.40;99.90
67273;DHT22;54190;49.770;9.250;2023-02-01T03:21:50;4.40;99.90
67273;DHT22;54190;49.770;9.250;2023-02-01T03:24:37;4.40;99.90
67273;DHT22;54190;49.770;9.250;2023-02-01T03:29:40;4.40;99.90
67273;DHT22;54190;49.770;9.250;2023-02-01T03:32:08;4.30;99.90
67273;DHT22;54190;49.770;9.250;2023-02-01T03:34:35;4.20;99.90
67273;DHT22;54190;49.770;9.250;2023-02-01T03:37:05;4.20;99.90
67273;DHT22;54190;49.770;9.250;2023-02-01T03:39:48;4.20;99.90
67273;DHT22;54190;49.770;9.250;2023-02-01T03:42:24;4.20;99.90
67273;DHT22;54190;49.770;9.250;2023-02-01T03:47:41;4.00;99.90
67273;DHT22;54190;49.770;9.250;2023-02-01T03:50:10;3.90;99.90
67273;DHT22;54190;49.770;9.250;2023-02-01T03:55:09;3.70;99.90
67273;DHT22;54190;49.770;9.250;2023-02-01T03:57:43;3.70;99.90
67273;DHT22;54190;49.770;9.250;2023-02-01T04:00:19;3.70;99.90
67273;DHT22;54190;49.770;9.250;2023-02-01T04:02:49;3.70;99.90
67273;DHT22;54190;49.770;9.250;2023-02-01T04:05:15;3.70;99.90
67273;DHT22;54190;49.770;9.250;2023-02-01T04:07:48;3.80;99.90
67273;DHT22;54190;49.770;9.250;2023-02-01T04:10:14;3.80;99.90
67273;DHT22;54190;49.770;9.250;2023-02-01T04:12:40;3.80;99.90
67273;DHT22;54190;49.770;9.250;2023-02-01T04:15:06;3.80;99.90
67273;DHT22;54190;49.770;9.250;2023-02-01T04:17:32;3.80;99.90
67273;DHT22;54190;49.770;9.250;2023-02-01T04:19:58;3.80;99.90
67273;DHT22;54190;49.770;9.250;2023-02-01T04:22:24;3.90;99.90
67273;DHT22;54190;49.770;9.250;2023-02-01T04:24:49;3.90;99.90
67273;DHT22;54190;49.770;9.250;2023-02-01T04:27:15;3.90;99.90
67273;DHT22;54190;49.770;9.250;2023-02-01T04:29:41;3.90;99.90
67273;DHT22;54190;49.770;9.250;2023-02-01T04:32:07;3.90;99.90
67273;DHT22;54190;49.770;9.250;2023-02-01T04:34:33;3.90;99.90
67273;DHT22;54190;49.770;9.250;2023-02-01T04:36:58;3.90;99.90
67273;DHT22;54190;49.770;9.250;2023-02-01T04:39:24;3.90;99.90
67273;DHT22;54190;49.770;9.250;2023-02-01T04:41:50;3.90;99.90
67273;DHT22;54190;49.770;9.250;2023-02-01T04:44:17;3.90;99.90
67273;DHT22;54190;49.770;9.250;2023-02-01T04:46:43;3.90;99.90
67273;DHT22;54190;49.770;9.250;2023-02-01T04:49:11;3.90;99.90
67273;DHT22;54190;49.770;9.250;2023-02-01T04:51:37;3.90;99.90
67273;DHT22;54190;49.770;9.250;2023-02-01T04:54:03;3.90;99.90
67273;DHT22;54190;49.770;9.250;2023-02-01T04:56:29;3.90;99.90
67273;DHT22;54190;49.770;9.250;2023-02-01T04:58:54;4.00;99.90
67273;DHT22;54190;49.770;9.250;2023-02-01T05:01:21;4.00;99.90
67273;DHT22;54190;49.770;9.250;2023-02-01T05:03:47;4.00;99.90
67273;DHT22;54190;49.770;9.250;2023-02-01T05:06:13;4.00;99.90
67273;DHT22;54190;49.770;9.250;2023-02-01T05:08:38;4.00;99.90
67273;DHT22;54190;49.770;9.250;2023-02-01T05:11:04;4.00;99.90
67273;DHT22;54190;49.770;9.250;2023-02-01T05:13:30;4.10;99.90
67273;DHT22;54190;49.770;9.250;2023-02-01T05:16:14;4.10;99.90
67273;DHT22;54190;49.770;9.250;2023-02-01T05:18:40;4.10;99.90
67273;DHT22;54190;49.770;9.250;2023-02-01T05:21:06;4.10;99.90
67273;DHT22;54190;49.770;9.250;2023-02-01T05:23:31;4.20;99.90
67273;DHT22;54190;49.770;9.250;2023-02-01T05:26:00;4.20;99.90
67273;DHT22;54190;49.770;9.250;2023-02-01T05:28:27;4.20;99.90
67273;DHT22;54190;49.770;9.250;2023-02-01T05:30:53;4.20;99.90
67273;DHT22;54190;49.770;9.250;2023-02-01T05:33:19;4.20;99.90
67273;DHT22;54190;49.770;9.250;2023-02-01T05:35:45;4.20;99.90
67273;DHT22;54190;49.770;9.250;2023-02-01T05:38:10;4.20;99.90
67273;DHT22;54190;49.770;9.250;2023-02-01T05:40:36;4.30;99.90
67273;DHT22;54190;49.770;9.250;2023-02-01T05:43:02;4.30;99.90
67273;DHT22;54190;49.770;9.250;2023-02-01T05:45:27;4.30;99.90
67273;DHT22;54190;49.770;9.250;2023-02-01T05:47:53;4.30;99.90
67273;DHT22;54190;49.770;9.250;2023-02-01T05:50:18;4.30;99.90
67273;DHT22;54190;49.770;9.250;2023-02-01T05:52:44;4.30;99.90
67273;DHT22;54190;49.770;9.250;2023-02-01T05:55:10;4.40;99.90
67273;DHT22;54190;49.770;9.250;2023-02-01T05:57:35;4.40;99.90
67273;DHT22;54190;49.770;9.250;2023-02-01T06:00:02;4.40;99.90
67273;DHT22;54190;49.770;9.250;2023-02-01T06:02:38;4.30;99.90
67273;DHT22;54190;49.770;9.250;2023-02-01T06:05:04;4.40;99.90
67273;DHT22;54190;49.770;9.250;2023-02-01T06:07:29;4.40;99.90
67273;DHT22;54190;49.770;9.250;2023-02-01T06:09:55;4.40;99.90
67273;DHT22;54190;49.770;9.250;2023-02-01T06:12:21;4.40;99.90
67273;DHT22;54190;49.770;9.250;2023-02-01T06:14:46;4.40;99.90
67273;DHT22;54190;49.770;9.250;2023-02-01T06:17:12;4.40;99.90
67273;DHT22;54190;49.770;9.250;2023-02-01T06:19:38;4.50;99.90
67273;DHT22;54190;49.770;9.250;2023-02-01T06:22:05;4.50;99.90
67273;DHT22;54190;49.770;9.250;2023-02-01T06:24:31;4.50;99.90
67273;DHT22;54190;49.770;9.250;2023-02-01T06:26:57;4.50;99.90
67273;DHT22;54190;49.770;9.250;2023-02-01T06:29:22;4.50;99.90
67273;DHT22;54190;49.770;9.250;2023-02-01T06:31:48;4.50;99.90
67273;DHT22;54190;49.770;9.250;2023-02-01T06:34:14;4.50;99.90
67273;DHT22;54190;49.770;9.250;2023-02-01T06:36:39;4.50;99.90
67273;DHT22;54190;49.770;9.250;2023-02-01T06:39:05;4.50;99.90
67273;DHT22;54190;49.770;9.250;2023-02-01T06:41:32;4.50;99.90
67273;DHT22;54190;49.770;9.250;2023-02-01T06:44:00;4.50;99.90
67273;DHT22;54190;49.770;9.250;2023-02-01T06:46:25;4.50;99.90
67273;DHT22;54190;49.770;9.250;2023-02-01T06:48:51;4.50;99.90
67273;DHT22;54190;49.770;9.250;2023-02-01T06:51:25;4.50;99.90
67273;DHT22;54190;49.770;9.250;2023-02-01T06:53:52;4.50;99.90
67273;DHT22;54190;49.770;9.250;2023-02-01T06:56:18;4.50;99.90
67273;DHT22;54190;49.770;9.250;2023-02-01T06:58:44;4.50;99.90
67273;DHT22;54190;49.770;9.250;2023-02-01T07:01:10;4.60;99.90
67273;DHT22;54190;49.770;9.250;2023-02-01T07:03:37;4.60;99.90
67273;DHT22;54190;49.770;9.250;2023-02-01T07:06:03;4.60;99.90
67273;DHT22;54190;49.770;9.250;2023-02-01T07:08:31;4.60;99.90
67273;DHT22;54190;49.770;9.250;2023-02-01T07:11:00;4.60;99.90
67273;DHT22;54190;49.770;9.250;2023-02-01T07:13:26;4.60;99.90
67273;DHT22;54190;49.770;9.250;2023-02-01T07:15:51;4.50;99.90
67273;DHT22;54190;49.770;9.250;2023-02-01T07:18:17;4.50;99.90
67273;DHT22;54190;49.770;9.250;2023-02-01T07:20:43;4.60;99.90
67273;DHT22;54190;49.770;9.250;2023-02-01T07:23:11;4.60;99.90
67273;DHT22;54190;49.770;9.250;2023-02-01T07:25:37;4.60;99.90
67273;DHT22;54190;49.770;9.250;2023-02-01T07:28:02;4.60;99.90
67273;DHT22;54190;49.770;9.250;2023-02-01T07:30:28;4.60;99.90
67273;DHT22;54190;49.770;9.250;2023-02-01T07:32:54;4.70;99.90
67273;DHT22;54190;49.770;9.250;2023-02-01T07:35:19;4.70;99.90
67273;DHT22;54190;49.770;9.250;2023-02-01T07:37:45;4.70;99.90
67273;DHT22;54190;49.770;9.250;2023-02-01T07:40:11;4.70;99.90
67273;DHT22;54190;49.770;9.250;2023-02-01T07:42:37;4.70;99.90
67273;DHT22;54190;49.770;9.250;2023-02-01T07:45:03;4.70;99.90
67273;DHT22;54190;49.770;9.250;2023-02-01T07:47:29;4.70;99.90
67273;DHT22;54190;49.770;9.250;2023-02-01T07:49:54;4.60;99.90
67273;DHT22;54190;49.770;9.250;2023-02-01T07:52:20;4.60;99.90
67273;DHT22;54190;49.770;9.250;2023-02-01T07:54:45;4.60;99.90
67273;DHT22;54190;49.770;9.250;2023-02-01T07:57:11;4.60;99.90
67273;DHT22;54190;49.770;9.250;2023-02-01T07:59:38;4.60;99.90
67273;DHT22;54190;49.770;9.250;2023-02-01T08:02:26;4.60;99.90
67273;DHT22;54190;49.770;9.250;2023-02-01T08:04:52;4.60;99.90
67273;DHT22;54190;49.770;9.250;2023-02-01T08:07:17;4.50;99.90
67273;DHT22;54190;49.770;9.250;2023-02-01T08:09:43;4.50;99.90
67273;DHT22;54190;49.770;9.250;2023-02-01T08:12:09;4.50;99.90
67273;DHT22;54190;49.770;9.250;2023-02-01T08:14:34;4.60;99.90
67273;DHT22;54190;49.770;9.250;2023-02-01T08:17:00;4.60;99.90
67273;DHT22;54190;49.770;9.250;2023-02-01T08:19:25;4.70;99.90
67273;DHT22;54190;49.770;9.250;2023-02-01T08:21:51;4.70;99.90
67273;DHT22;54190;49.770;9.250;2023-02-01T08:24:17;4.80;99.90
67273;DHT22;54190;49.770;9.250;2023-02-01T08:26:42;4.80;99.90
67273;DHT22;54190;49.770;9.250;2023-02-01T08:29:08;4.80;99.90
67273;DHT22;54190;49.770;9.250;2023-02-01T08:31:35;4.80;99.90
67273;DHT22;54190;49.770;9.250;2023-02-01T08:34:06;4.80;99.90
67273;DHT22;54190;49.770;9.250;2023-02-01T08:36:34;4.90;99.90
67273;DHT22;54190;49.770;9.250;2023-02-01T08:39:00;5.00;99.90
67273;DHT22;54190;49.770;9.250;2023-02-01T08:41:28;5.10;99.90
67273;DHT22;54190;49.770;9.250;2023-02-01T08:43:55;5.10;99.90
67273;DHT22;54190;49.770;9.250;2023-02-01T08:46:21;5.20;99.90
67273;DHT22;54190;49.770;9.250;2023-02-01T08:48:47;5.40;99.90
67273;DHT22;54190;49.770;9.250;2023-02-01T08:51:15;5.40;99.90
67273;DHT22;54190;49.770;9.250;2023-02-01T08:53:41;5.50;99.90
67273;DHT22;54190;49.770;9.250;2023-02-01T08:56:08;5.50;99.90
67273;DHT22;54190;49.770;9.250;2023-02-01T08:58:35;5.50;99.90
67273;DHT22;54190;49.770;9.250;2023-02-01T09:01:08;5.60;99.90
67273;DHT22;54190;49.770;9.250;2023-02-01T09:03:34;5.60;99.90
67273;DHT22;54190;49.770;9.250;2023-02-01T09:06:04;5.60;99.90
67273;DHT22;54190;49.770;9.250;2023-02-01T09:08:31;5.60;99.90
67273;DHT22;54190;49.770;9.250;2023-02-01T09:11:05;5.60;99.90
67273;DHT22;54190;49.770;9.250;2023-02-01T09:13:32;5.60;99.90
67273;DHT22;54190;49.770;9.250;2023-02-01T09:15:59;5.50;99.90
67273;DHT22;54190;49.770;9.250;2023-02-01T09:18:25;5.50;99.90
67273;DHT22;54190;49.770;9.250;2023-02-01T09:20:51;5.50;99.90
67273;DHT22;54190;49.770;9.250;2023-02-01T09:23:16;5.50;99.90
67273;DHT22;54190;49.770;9.250;2023-02-01T09:25:42;5.50;99.90
67273;DHT22;54190;49.770;9.250;2023-02-01T09:28:08;5.50;99.90
67273;DHT22;54190;49.770;9.250;2023-02-01T09:30:35;5.50;99.90
67273;DHT22;54190;49.770;9.250;2023-02-01T09:33:02;5.50;99.90
67273;DHT22;54190;49.770;9.250;2023-02-01T09:35:28;5.50;99.90
67273;DHT22;54190;49.770;9.250;2023-02-01T09:37:53;5.60;99.90
67273;DHT22;54190;49.770;9.250;2023-02-01T09:40:19;5.60;99.90
67273;DHT22;54190;49.770;9.250;2023-02-01T09:48:24;5.70;99.90
67273;DHT22;54190;49.770;9.250;2023-02-01T09:50:55;5.70;99.90
67273;DHT22;54190;49.770;9.250;2023-02-01T09:53:27;5.70;99.90
67273;DHT22;54190;49.770;9.250;2023-02-01T09:56:05;5.80;99.90
67273;DHT22;54190;49.770;9.250;2023-02-01T09:58:38;5.80;99.90
67273;DHT22;54190;49.770;9.250;2023-02-01T10:01:19;5.80;99.90
67273;DHT22;54190;49.770;9.250;2023-02-01T10:03:46;5.80;99.90
67273;DHT22;54190;49.770;9.250;2023-02-01T10:06:36;5.80;99.90
67273;DHT22;54190;49.770;9.250;2023-02-01T10:09:16;5.80;99.90
67273;DHT22;54190;49.770;9.250;2023-02-01T10:12:12;5.70;99.90
67273;DHT22;54190;49.770;9.250;2023-02-01T10:20:20;5.70;99.90
67273;DHT22;54190;49.770;9.250;2023-02-01T10:22:59;5.60;99.90
67273;DHT22;54190;49.770;9.250;2023-02-01T10:25:52;5.60;99.90
67273;DHT22;54190;49.770;9.250;2023-02-01T10:28:18;5.60;99.90
67273;DHT22;54190;49.770;9.250;2023-02-01T10:30:48;5.60;99.90
67273;DHT22;54190;49.770;9.250;2023-02-01T10:35:44;5.50;99.90
67273;DHT22;54190;49.770;9.250;2023-02-01T10:38:27;5.50;99.90
67273;DHT22;54190;49.770;9.250;2023-02-01T10:41:00;5.60;99.90
67273;DHT22;54190;49.770;9.250;2023-02-01T10:43:27;5.60;99.90
67273;DHT22;54190;49.770;9.250;2023-02-01T10:45:52;5.70;99.90
67273;DHT22;54190;49.770;9.250;2023-02-01T10:48:18;5.70;99.90
67273;DHT22;54190;49.770;9.250;2023-02-01T10:50:59;5.60;99.90
67273;DHT22;54190;49.770;9.250;2023-02-01T10:53:33;5.60;99.90
67273;DHT22;54190;49.770;9.250;2023-02-01T10:56:11;5.60;99.90
67273;DHT22;54190;49.770;9.250;2023-02-01T10:58:44;5.60;99.90
67273;DHT22;54190;49.770;9.250;2023-02-01T11:01:28;5.60;99.90
67273;DHT22;54190;49.770;9.250;2023-02-01T11:04:00;5.60;99.90
67273;DHT22;54190;49.770;9.250;2023-02-01T11:08:57;5.70;99.90
67273;DHT22;54190;49.770;9.250;2023-02-01T11:11:24;5.60;99.90
67273;DHT22;54190;49.770;9.250;2023-02-01T11:13:58;5.70;99.90
67273;DHT22;54190;49.770;9.250;2023-02-01T11:16:38;5.60;99.90
67273;DHT22;54190;49.770;9.250;2023-02-01T11:19:05;5.60;99.90
67273;DHT22;54190;49.770;9.250;2023-02-01T11:21:32;5.60;99.90
67273;DHT22;54190;49.770;9.250;2023-02-01T11:24:05;5.60;99.90
67273;DHT22;54190;49.770;9.250;2023-02-01T11:26:40;5.70;99.90
67273;DHT22;54190;49.770;9.250;2023-02-01T11:29:12;5.60;99.90
67273;DHT22;54190;49.770;9.250;2023-02-01T11:31:39;5.70;99.90
67273;DHT22;54190;49.770;9.250;2023-02-01T11:34:15;5.70;99.90
67273;DHT22;54190;49.770;9.250;2023-02-01T11:36:41;5.70;99.90
67273;DHT22;54190;49.770;9.250;2023-02-01T11:44:23;5.90;99.90
67273;DHT22;54190;49.770;9.250;2023-02-01T11:46:51;5.90;99.90
67273;DHT22;54190;49.770;9.250;2023-02-01T11:49:25;5.80;99.90
67273;DHT22;54190;49.770;9.250;2023-02-01T11:52:02;5.80;99.90
67273;DHT22;54190;49.770;9.250;2023-02-01T11:54:51;5.80;99.90
67273;DHT22;54190;49.770;9.250;2023-02-01T11:57:41;5.80;99.90
67273;DHT22;54190;49.770;9.250;2023-02-01T12:08:38;5.60;99.90
67273;DHT22;54190;49.770;9.250;2023-02-01T12:11:36;5.70;99.90
67273;DHT22;54190;49.770;9.250;2023-02-01T12:14:21;5.60;99.90
67273;DHT22;54190;49.770;9.250;2023-02-01T12:19:55;5.70;99.90
67273;DHT22;54190;49.770;9.250;2023-02-01T12:23:26;5.70;99.90
67273;DHT22;54190;49.770;9.250;2023-02-01T12:26:04;5.70;99.90
67273;DHT22;54190;49.770;9.250;2023-02-01T12:48:39;5.70;99.90
67273;DHT22;54190;49.770;9.250;2023-02-01T12:51:14;5.70;99.90
67273;DHT22;54190;49.770;9.250;2023-02-01T12:54:09;5.70;99.90
67273;DHT22;54190;49.770;9.250;2023-02-01T12:56:47;5.70;99.90
67273;DHT22;54190;49.770;9.250;2023-02-01T12:59:36;5.70;99.90
67273;DHT22;54190;49.770;9.250;2023-02-01T13:02:30;5.70;99.90
67273;DHT22;54190;49.770;9.250;2023-02-01T13:05:11;5.70;99.90
67273;DHT22;54190;49.770;9.250;2023-02-01T13:07:51;5.70;99.90
67273;DHT22;54190;49.770;9.250;2023-02-01T13:18:35;5.80;99.90
67273;DHT22;54190;49.770;9.250;2023-02-01T13:21:12;5.80;99.90
67273;DHT22;54190;49.770;9.250;2023-02-01T13:23:41;5.80;99.90
67273;DHT22;54190;49.770;9.250;2023-02-01T13:26:09;5.80;99.90
67273;DHT22;54190;49.770;9.250;2023-02-01T13:28:47;5.80;99.90
67273;DHT22;54190;49.770;9.250;2023-02-01T13:43:22;5.80;99.90
67273;DHT22;54190;49.770;9.250;2023-02-01T13:45:51;5.80;99.90
67273;DHT22;54190;49.770;9.250;2023-02-01T13:48:45;5.80;99.90
67273;DHT22;54190;49.770;9.250;2023-02-01T13:51:12;5.70;99.90
67273;DHT22;54190;49.770;9.250;2023-02-01T13:53:45;5.70;99.90
67273;DHT22;54190;49.770;9.250;2023-02-01T13:56:23;5.70;99.90
67273;DHT22;54190;49.770;9.250;2023-02-01T13:58:50;5.70;99.90
67273;DHT22;54190;49.770;9.250;2023-02-01T14:03:59;5.70;99.90
67273;DHT22;54190;49.770;9.250;2023-02-01T14:19:31;5.60;99.90
67273;DHT22;54190;49.770;9.250;2023-02-01T14:24:57;5.70;99.90
67273;DHT22;54190;49.770;9.250;2023-02-01T14:27:26;5.60;99.90
67273;DHT22;54190;49.770;9.250;2023-02-01T14:30:01;5.70;99.90
67273;DHT22;54190;49.770;9.250;2023-02-01T14:32:39;5.70;99.90
67273;DHT22;54190;49.770;9.250;2023-02-01T14:35:25;5.60;99.90
67273;DHT22;54190;49.770;9.250;2023-02-01T14:37:54;5.70;99.90
67273;DHT22;54190;49.770;9.250;2023-02-01T14:40:26;5.70;99.90
67273;DHT22;54190;49.770;9.250;2023-02-01T14:42:53;5.70;99.90
67273;DHT22;54190;49.770;9.250;2023-02-01T14:55:45;5.70;99.90
67273;DHT22;54190;49.770;9.250;2023-02-01T15:01:05;5.70;99.90
67273;DHT22;54190;49.770;9.250;2023-02-01T15:03:43;5.70;99.90
67273;DHT22;54190;49.770;9.250;2023-02-01T15:09:00;5.70;99.90
67273;DHT22;54190;49.770;9.250;2023-02-01T15:11:27;5.70;99.90
67273;DHT22;54190;49.770;9.250;2023-02-01T15:13:53;5.70;99.90
67273;DHT22;54190;49.770;9.250;2023-02-01T15:16:23;5.70;99.90
67273;DHT22;54190;49.770;9.250;2023-02-01T15:18:49;5.70;99.90
67273;DHT22;54190;49.770;9.250;2023-02-01T15:21:20;5.70;99.90
67273;DHT22;54190;49.770;9.250;2023-02-01T15:23:47;5.70;99.90
67273;DHT22;54190;49.770;9.250;2023-02-01T15:26:27;5.70;99.90
67273;DHT22;54190;49.770;9.250;2023-02-01T15:28:53;5.70;99.90
67273;DHT22;54190;49.770;9.250;2023-02-01T15:31:33;5.70;99.90
67273;DHT22;54190;49.770;9.250;2023-02-01T15:33:59;5.70;99.90
67273;DHT22;54190;49.770;9.250;2023-02-01T15:36:24;5.80;99.90
67273;DHT22;54190;49.770;9.250;2023-02-01T15:39:31;5.80;99.90
67273;DHT22;54190;49.770;9.250;2023-02-01T15:42:11;5.80;99.90
67273;DHT22;54190;49.770;9.250;2023-02-01T15:44:43;5.70;99.90
67273;DHT22;54190;49.770;9.250;2023-02-01T15:47:20;5.80;99.90
67273;DHT22;54190;49.770;9.250;2023-02-01T15:49:52;5.80;99.90
67273;DHT22;54190;49.770;9.250;2023-02-01T15:52:35;5.80;99.90
67273;DHT22;54190;49.770;9.250;2023-02-01T15:55:38;5.80;99.90
67273;DHT22;54190;49.770;9.250;2023-02-01T15:57:56;5.80;99.90
67273;DHT22;54190;49.770;9.250;2023-02-01T16:00:30;5.80;99.90
67273;DHT22;54190;49.770;9.250;2023-02-01T16:03:04;5.80;99.90
67273;DHT22;54190;49.770;9.250;2023-02-01T16:05:42;5.80;99.90
67273;DHT22;54190;49.770;9.250;2023-02-01T16:08:20;5.70;99.90
67273;DHT22;54190;49.770;9.250;2023-02-01T16:10:49;5.80;99.90
67273;DHT22;54190;49.770;9.250;2023-02-01T16:13:17;5.80;99.90
67273;DHT22;54190;49.770;9.250;2023-02-01T16:15:43;5.80;99.90
67273;DHT22;54190;49.770;9.250;2023-02-01T16:18:10;5.80;99.90
67273;DHT22;54190;49.770;9.250;2023-02-01T16:20:38;5.80;99.90
67273;DHT22;54190;49.770;9.250;2023-02-01T16:23:04;5.80;99.90
67273;DHT22;54190;49.770;9.250;2023-02-01T16:25:31;5.80;99.90
67273;DHT22;54190;49.770;9.250;2023-02-01T16:27:56;5.80;99.90
67273;DHT22;54190;49.770;9.250;2023-02-01T16:30:22;5.80;99.90
67273;DHT22;54190;49.770;9.250;2023-02-01T16:32:58;5.80;99.90
67273;DHT22;54190;49.770;9.250;2023-02-01T16:37:52;5.70;99.90
67273;DHT22;54190;49.770;9.250;2023-02-01T16:40:19;5.70;99.90
67273;DHT22;54190;49.770;9.250;2023-02-01T16:42:49;5.70;99.90
67273;DHT22;54190;49.770;9.250;2023-02-01T16:45:15;5.70;99.90
67273;DHT22;54190;49.770;9.250;2023-02-01T16:47:49;5.70;99.90
67273;DHT22;54190;49.770;9.250;2023-02-01T16:50:26;5.80;99.90
67273;DHT22;54190;49.770;9.250;2023-02-01T16:52:53;5.80;99.90
67273;DHT22;54190;49.770;9.250;2023-02-01T16:55:20;5.80;99.90
67273;DHT22;54190;49.770;9.250;2023-02-01T16:57:47;5.80;99.90
67273;DHT22;54190;49.770;9.250;2023-02-01T17:00:13;5.80;99.90
67273;DHT22;54190;49.770;9.250;2023-02-01T17:02:41;5.80;99.90
67273;DHT22;54190;49.770;9.250;2023-02-01T17:05:08;5.80;99.90
67273;DHT22;54190;49.770;9.250;2023-02-01T17:07:33;5.90;99.90
67273;DHT22;54190;49.770;9.250;2023-02-01T17:09:59;5.80;99.90
67273;DHT22;54190;49.770;9.250;2023-02-01T17:12:29;5.80;99.90
67273;DHT22;54190;49.770;9.250;2023-02-01T17:14:56;5.80;99.90
67273;DHT22;54190;49.770;9.250;2023-02-01T17:17:23;5.80;99.90
67273;DHT22;54190;49.770;9.250;2023-02-01T17:19:51;5.80;99.90
67273;DHT22;54190;49.770;9.250;2023-02-01T17:22:22;5.80;99.90
67273;DHT22;54190;49.770;9.250;2023-02-01T17:24:48;5.80;99.90
67273;DHT22;54190;49.770;9.250;2023-02-01T17:27:15;5.80;99.90
67273;DHT22;54190;49.770;9.250;2023-02-01T17:29:41;5.80;99.90
67273;DHT22;54190;49.770;9.250;2023-02-01T17:32:20;5.80;99.90
67273;DHT22;54190;49.770;9.250;2023-02-01T17:34:46;5.80;99.90
67273;DHT22;54190;49.770;9.250;2023-02-01T17:37:32;5.80;99.90
67273;DHT22;54190;49.770;9.250;2023-02-01T17:39:58;5.80;99.90
67273;DHT22;54190;49.770;9.250;2023-02-01T17:42:25;5.80;99.90
67273;DHT22;54190;49.770;9.250;2023-02-01T17:44:56;5.80;99.90
67273;DHT22;54190;49.770;9.250;2023-02-01T17:47:22;5.90;99.90
67273;DHT22;54190;49.770;9.250;2023-02-01T17:49:48;5.90;99.90
67273;DHT22;54190;49.770;9.250;2023-02-01T17:52:22;5.90;99.90
67273;DHT22;54190;49.770;9.250;2023-02-01T17:54:48;5.90;99.90
67273;DHT22;54190;49.770;9.250;2023-02-01T17:57:18;5.90;99.90
67273;DHT22;54190;49.770;9.250;2023-02-01T17:59:43;5.90;99.90
67273;DHT22;54190;49.770;9.250;2023-02-01T18:02:20;5.90;99.90
67273;DHT22;54190;49.770;9.250;2023-02-01T18:04:47;5.90;99.90
67273;DHT22;54190;49.770;9.250;2023-02-01T18:07:13;5.90;99.90
67273;DHT22;54190;49.770;9.250;2023-02-01T18:09:39;6.00;99.90
67273;DHT22;54190;49.770;9.250;2023-02-01T18:12:06;5.90;99.90
67273;DHT22;54190;49.770;9.250;2023-02-01T18:14:31;6.00;99.90
67273;DHT22;54190;49.770;9.250;2023-02-01T18:16:58;6.00;99.90
67273;DHT22;54190;49.770;9.250;2023-02-01T18:19:23;6.00;99.90
67273;DHT22;54190;49.770;9.250;2023-02-01T18:21:49;6.00;99.90
67273;DHT22;54190;49.770;9.250;2023-02-01T18:24:17;5.90;99.90